sensor_id;sensor_type;location;lat;lon;timestamp;P1;P2;P0
55459;PMS5003;41326;45.302;-122.946;2023-05-07T00:01:02;1;0;
55459;PMS5003;41326;45.302;-122.946;2023-05-07T00:03:32;4;1;
55459;PMS5003;41326;45.302;-122.946;2023-05-07T00:06:03;0;0;
55459;PMS5003;41326;45.302;-122.946;2023-05-07T00:08:33;0;0;
55459;PMS5003;41326;45.302;-122.946;2023-05-07T00:11:03;0;0;
55459;PMS5003;41326;45.302;-122.946;2023-05-07T00:13:34;1;1;
55459;PMS5003;41326;45.302;-122.946;2023-05-07T00:16:04;0;0;
55459;PMS5003;41326;45.302;-122.946;2023-05-07T00:18:35;0;0;
55459;PMS5003;41326;45.302;-122.946;2023-05-07T00:21:05;0;0;
55459;PMS5003;41326;45.302;-122.946;2023-05-07T00:23:35;0;0;
55459;PMS5003;41326;45.302;-122.946;2023-05-07T00:26:06;1;0;
55459;PMS5003;41326;45.302;-122.946;2023-05-07T00:28:36;2;1;
55459;PMS5003;41326;45.302;-122.946;2023-05-07T00:31:06;0;0;
55459;PMS5003;41326;45.302;-122.946;2023-05-07T00:33:37;0;0;
55459;PMS5003;41326;45.302;-122.946;2023-05-07T00:36:08;1;0;
55459;PMS5003;41326;45.302;-122.946;2023-05-07T00:38:37;0;0;
55459;PMS5003;41326;45.302;-122.946;2023-05-07T00:41:08;0;0;
55459;PMS5003;41326;45.302;-122.946;2023-05-07T00:43:38;0;0;
55459;PMS5003;41326;45.302;-122.946;2023-05-07T00:46:09;0;0;
55459;PMS5003;41326;45.302;-122.946;2023-05-07T00:48:39;0;0;
55459;PMS5003;41326;45.302;-122.946;2023-05-07T00:51:09;0;0;
55459;PMS5003;41326;45.302;-122.946;2023-05-07T00:53:40;0;0;
55459;PMS5003;41326;45.302;-122.946;2023-05-07T00:56:10;2;0;
55459;PMS5003;41326;45.302;-122.946;2023-05-07T00:58:40;0;0;
55459;PMS5003;41326;45.302;-122.946;2023-05-07T01:01:10;0;0;
55459;PMS5003;41326;45.302;-122.946;2023-05-07T01:03:41;1;0;
55459;PMS5003;41326;45.302;-122.946;2023-05-07T01:06:11;0;0;
55459;PMS5003;41326;45.302;-122.946;2023-05-07T01:08:41;0;0;
55459;PMS5003;41326;45.302;-122.946;2023-05-07T01:11:11;0;0;
55459;PMS5003;41326;45.302;-122.946;2023-05-07T01:13:42;0;0;
55459;PMS5003;41326;45.302;-122.946;2023-05-07T01:16:12;1;0;
55459;PMS5003;41326;45.302;-122.946;2023-05-07T01:18:43;0;0;
55459;PMS5003;41326;45.302;-122.946;2023-05-07T01:21:14;0;0;
55459;PMS5003;41326;45.302;-122.946;2023-05-07T01:23:44;2;0;
55459;PMS5003;41326;45.302;-122.946;2023-05-07T01:26:14;0;0;
55459;PMS5003;41326;45.302;-122.946;2023-05-07T01:28:44;0;0;
55459;PMS5003;41326;45.302;-122.946;2023-05-07T01:31:15;0;0;
55459;PMS5003;41326;45.302;-122.946;2023-05-07T01:33:45;0;0;
55459;PMS5003;41326;45.302;-122.946;2023-05-07T01:36:15;0;0;
55459;PMS5003;41326;45.302;-122.946;2023-05-07T01:38:46;0;0;
55459;PMS5003;41326;45.302;-122.946;2023-05-07T01:41:16;0;0;
55459;PMS5003;41326;45.302;-122.946;2023-05-07T01:43:48;0;0;
55459;PMS5003;41326;45.302;-122.946;2023-05-07T01:46:17;1;1;
55459;PMS5003;41326;45.302;-122.946;2023-05-07T01:48:47;0;0;
55459;PMS5003;41326;45.302;-122.946;2023-05-07T01:51:18;0;0;
55459;PMS5003;41326;45.302;-122.946;2023-05-07T01:53:48;0;0;
55459;PMS5003;41326;45.302;-122.946;2023-05-07T01:56:18;1;1;
55459;PMS5003;41326;45.302;-122.946;2023-05-07T01:58:48;0;0;
55459;PMS5003;41326;45.302;-122.946;2023-05-07T02:01:19;0;0;
55459;PMS5003;41326;45.302;-122.946;2023-05-07T02:03:50;0;0;
55459;PMS5003;41326;45.302;-122.946;2023-05-07T02:06:20;0;0;
55459;PMS5003;41326;45.302;-122.946;2023-05-07T02:08:50;0;0;
55459;PMS5003;41326;45.302;-122.946;2023-05-07T02:11:20;0;0;
55459;PMS5003;41326;45.302;-122.946;2023-05-07T02:13:51;0;0;
55459;PMS5003;41326;45.302;-122.946;2023-05-07T02:16:21;1;1;
55459;PMS5003;41326;45.302;-122.946;2023-05-07T02:18:51;0;0;
55459;PMS5003;41326;45.302;-122.946;2023-05-07T02:22:31;0;0;
55459;PMS5003;41326;45.302;-122.946;2023-05-07T02:25:01;0;0;
55459;PMS5003;41326;45.302;-122.946;2023-05-07T02:27:31;0;0;
55459;PMS5003;41326;45.302;-122.946;2023-05-07T02:30:02;0;0;
55459;PMS5003;41326;45.302;-122.946;2023-05-07T02:32:42;0;0;
55459;PMS5003;41326;45.302;-122.946;2023-05-07T02:35:12;0;0;
55459;PMS5003;41326;45.302;-122.946;2023-05-07T02:37:43;0;0;
55459;PMS5003;41326;45.302;-122.946;2023-05-07T02:40:13;1;1;
55459;PMS5003;41326;45.302;-122.946;2023-05-07T02:42:43;1;1;
55459;PMS5003;41326;45.302;-122.946;2023-05-07T02:45:13;1;0;
55459;PMS5003;41326;45.302;-122.946;2023-05-07T02:47:44;0;0;
55459;PMS5003;41326;45.302;-122.946;2023-05-07T02:50:14;1;1;
55459;PMS5003;41326;45.302;-122.946;2023-05-07T02:52:45;0;0;
55459;PMS5003;41326;45.302;-122.946;2023-05-07T02:55:14;1;1;
55459;PMS5003;41326;45.302;-122.946;2023-05-07T02:57:44;0;0;
55459;PMS5003;41326;45.302;-122.946;2023-05-07T03:00:16;0;0;
55459;PMS5003;41326;45.302;-122.946;2023-05-07T03:02:45;1;0;
55459;PMS5003;41326;45.302;-122.946;2023-05-07T03:05:15;1;1;
55459;PMS5003;41326;45.302;-122.946;2023-05-07T03:07:46;0;0;
55459;PMS5003;41326;45.302;-122.946;2023-05-07T03:10:16;0;0;
55459;PMS5003;41326;45.302;-122.946;2023-05-07T03:12:47;0;0;
55459;PMS5003;41326;45.302;-122.946;2023-05-07T03:15:17;0;0;
55459;PMS5003;41326;45.302;-122.946;2023-05-07T03:17:48;1;0;
55459;PMS5003;41326;45.302;-122.946;2023-05-07T03:20:18;0;0;
55459;PMS5003;41326;45.302;-122.946;2023-05-07T03:22:48;0;0;
55459;PMS5003;41326;45.302;-122.946;2023-05-07T03:25:18;0;0;
55459;PMS5003;41326;45.302;-122.946;2023-05-07T03:27:48;0;0;
55459;PMS5003;41326;45.302;-122.946;2023-05-07T03:30:19;0;0;
55459;PMS5003;41326;45.302;-122.946;2023-05-07T03:32:49;0;0;
55459;PMS5003;41326;45.302;-122.946;2023-05-07T03:35:20;0;0;
55459;PMS5003;41326;45.302;-122.946;2023-05-07T03:37:50;2;1;
55459;PMS5003;41326;45.302;-122.946;2023-05-07T03:40:20;0;0;
55459;PMS5003;41326;45.302;-122.946;2023-05-07T03:42:51;2;1;
55459;PMS5003;41326;45.302;-122.946;2023-05-07T03:45:21;0;0;
55459;PMS5003;41326;45.302;-122.946;2023-05-07T03:47:51;0;0;
55459;PMS5003;41326;45.302;-122.946;2023-05-07T03:50:22;0;0;
55459;PMS5003;41326;45.302;-122.946;2023-05-07T03:52:53;2;1;
55459;PMS5003;41326;45.302;-122.946;2023-05-07T03:55:22;0;0;
55459;PMS5003;41326;45.302;-122.946;2023-05-07T03:57:52;1;1;
55459;PMS5003;41326;45.302;-122.946;2023-05-07T04:00:23;1;0;
55459;PMS5003;41326;45.302;-122.946;2023-05-07T04:02:54;1;1;
55459;PMS5003;41326;45.302;-122.946;2023-05-07T04:05:24;0;0;
55459;PMS5003;41326;45.302;-122.946;2023-05-07T04:07:55;0;0;
55459;PMS5003;41326;45.302;-122.946;2023-05-07T04:10:25;0;0;
55459;PMS5003;41326;45.302;-122.946;2023-05-07T04:12:55;0;0;
55459;PMS5003;41326;45.302;-122.946;2023-05-07T04:15:25;0;0;
55459;PMS5003;41326;45.302;-122.946;2023-05-07T04:17:56;1;1;
55459;PMS5003;41326;45.302;-122.946;2023-05-07T04:20:26;1;1;
55459;PMS5003;41326;45.302;-122.946;2023-05-07T04:22:57;0;0;
55459;PMS5003;41326;45.302;-122.946;2023-05-07T04:25:27;1;0;
55459;PMS5003;41326;45.302;-122.946;2023-05-07T04:27:58;1;0;
55459;PMS5003;41326;45.302;-122.946;2023-05-07T04:30:28;1;1;
55459;PMS5003;41326;45.302;-122.946;2023-05-07T04:32:58;1;0;
55459;PMS5003;41326;45.302;-122.946;2023-05-07T04:35:28;1;0;
55459;PMS5003;41326;45.302;-122.946;2023-05-07T04:37:58;0;0;
55459;PMS5003;41326;45.302;-122.946;2023-05-07T04:40:29;0;0;
55459;PMS5003;41326;45.302;-122.946;2023-05-07T04:42:59;0;0;
55459;PMS5003;41326;45.302;-122.946;2023-05-07T04:45:29;1;1;
55459;PMS5003;41326;45.302;-122.946;2023-05-07T04:48:00;1;0;
55459;PMS5003;41326;45.302;-122.946;2023-05-07T04:50:30;1;0;
55459;PMS5003;41326;45.302;-122.946;2023-05-07T04:53:01;2;0;
55459;PMS5003;41326;45.302;-122.946;2023-05-07T04:55:31;1;1;
55459;PMS5003;41326;45.302;-122.946;2023-05-07T04:58:01;0;0;
55459;PMS5003;41326;45.302;-122.946;2023-05-07T05:00:32;0;0;
55459;PMS5003;41326;45.302;-122.946;2023-05-07T05:03:02;0;0;
55459;PMS5003;41326;45.302;-122.946;2023-05-07T05:05:32;1;1;
55459;PMS5003;41326;45.302;-122.946;2023-05-07T05:08:03;0;0;
55459;PMS5003;41326;45.302;-122.946;2023-05-07T05:10:33;1;1;
55459;PMS5003;41326;45.302;-122.946;2023-05-07T05:13:04;0;0;
55459;PMS5003;41326;45.302;-122.946;2023-05-07T05:15:34;0;0;
55459;PMS5003;41326;45.302;-122.946;2023-05-07T05:18:04;0;0;
55459;PMS5003;41326;45.302;-122.946;2023-05-07T05:20:34;1;1;
55459;PMS5003;41326;45.302;-122.946;2023-05-07T05:23:05;1;1;
55459;PMS5003;41326;45.302;-122.946;2023-05-07T05:25:35;0;0;
55459;PMS5003;41326;45.302;-122.946;2023-05-07T05:28:05;1;1;
55459;PMS5003;41326;45.302;-122.946;2023-05-07T05:30:35;1;1;
55459;PMS5003;41326;45.302;-122.946;2023-05-07T05:33:05;0;0;
55459;PMS5003;41326;45.302;-122.946;2023-05-07T05:35:35;0;0;
55459;PMS5003;41326;45.302;-122.946;2023-05-07T05:38:05;1;0;
55459;PMS5003;41326;45.302;-122.946;2023-05-07T05:40:36;1;1;
55459;PMS5003;41326;45.302;-122.946;2023-05-07T05:43:06;0;0;
55459;PMS5003;41326;45.302;-122.946;2023-05-07T05:45:37;0;0;
55459;PMS5003;41326;45.302;-122.946;2023-05-07T05:48:08;1;1;
55459;PMS5003;41326;45.302;-122.946;2023-05-07T05:50:38;16;9;
55459;PMS5003;41326;45.302;-122.946;2023-05-07T05:53:08;33;23;
55459;PMS5003;41326;45.302;-122.946;2023-05-07T05:55:39;29;25;
55459;PMS5003;41326;45.302;-122.946;2023-05-07T05:58:09;15;12;
55459;PMS5003;41326;45.302;-122.946;2023-05-07T06:00:39;23;8;
55459;PMS5003;41326;45.302;-122.946;2023-05-07T06:03:10;8;6;
55459;PMS5003;41326;45.302;-122.946;2023-05-07T06:05:40;7;5;
55459;PMS5003;41326;45.302;-122.946;2023-05-07T06:08:10;10;7;
55459;PMS5003;41326;45.302;-122.946;2023-05-07T06:10:41;6;5;
55459;PMS5003;41326;45.302;-122.946;2023-05-07T06:13:11;6;4;
55459;PMS5003;41326;45.302;-122.946;2023-05-07T06:15:41;11;8;
55459;PMS5003;41326;45.302;-122.946;2023-05-07T06:18:12;12;11;
55459;PMS5003;41326;45.302;-122.946;2023-05-07T06:20:42;17;7;
55459;PMS5003;41326;45.302;-122.946;2023-05-07T06:23:14;3;3;
55459;PMS5003;41326;45.302;-122.946;2023-05-07T06:25:47;5;5;
55459;PMS5003;41326;45.302;-122.946;2023-05-07T06:28:14;8;7;
55459;PMS5003;41326;45.302;-122.946;2023-05-07T06:30:44;9;5;
55459;PMS5003;41326;45.302;-122.946;2023-05-07T06:33:14;5;5;
55459;PMS5003;41326;45.302;-122.946;2023-05-07T06:35:45;8;6;
55459;PMS5003;41326;45.302;-122.946;2023-05-07T06:38:15;8;4;
55459;PMS5003;41326;45.302;-122.946;2023-05-07T06:40:48;8;6;
55459;PMS5003;41326;45.302;-122.946;2023-05-07T06:43:16;5;3;
55459;PMS5003;41326;45.302;-122.946;2023-05-07T06:45:46;6;4;
55459;PMS5003;41326;45.302;-122.946;2023-05-07T06:48:16;4;4;
55459;PMS5003;41326;45.302;-122.946;2023-05-07T06:50:47;4;3;
55459;PMS5003;41326;45.302;-122.946;2023-05-07T06:53:17;7;5;
55459;PMS5003;41326;45.302;-122.946;2023-05-07T06:55:48;5;3;
55459;PMS5003;41326;45.302;-122.946;2023-05-07T06:58:18;7;4;
55459;PMS5003;41326;45.302;-122.946;2023-05-07T07:00:48;6;4;
55459;PMS5003;41326;45.302;-122.946;2023-05-07T07:03:19;2;2;
55459;PMS5003;41326;45.302;-122.946;2023-05-07T07:05:51;3;3;
55459;PMS5003;41326;45.302;-122.946;2023-05-07T07:08:19;5;4;
55459;PMS5003;41326;45.302;-122.946;2023-05-07T07:10:50;4;3;
55459;PMS5003;41326;45.302;-122.946;2023-05-07T07:13:20;4;2;
55459;PMS5003;41326;45.302;-122.946;2023-05-07T07:15:51;5;3;
55459;PMS5003;41326;45.302;-122.946;2023-05-07T07:18:21;7;4;
55459;PMS5003;41326;45.302;-122.946;2023-05-07T07:20:51;2;2;
55459;PMS5003;41326;45.302;-122.946;2023-05-07T07:23:22;2;2;
55459;PMS5003;41326;45.302;-122.946;2023-05-07T07:25:52;2;1;
55459;PMS5003;41326;45.302;-122.946;2023-05-07T07:28:22;2;2;
55459;PMS5003;41326;45.302;-122.946;2023-05-07T07:30:53;3;1;
55459;PMS5003;41326;45.302;-122.946;2023-05-07T07:33:24;2;2;
55459;PMS5003;41326;45.302;-122.946;2023-05-07T07:35:55;0;0;
55459;PMS5003;41326;45.302;-122.946;2023-05-07T07:38:24;1;1;
55459;PMS5003;41326;45.302;-122.946;2023-05-07T07:40:54;2;2;
55459;PMS5003;41326;45.302;-122.946;2023-05-07T07:43:25;1;1;
55459;PMS5003;41326;45.302;-122.946;2023-05-07T07:45:56;4;1;
55459;PMS5003;41326;45.302;-122.946;2023-05-07T07:48:26;1;1;
55459;PMS5003;41326;45.302;-122.946;2023-05-07T07:50:56;1;1;
55459;PMS5003;41326;45.302;-122.946;2023-05-07T07:53:26;2;2;
55459;PMS5003;41326;45.302;-122.946;2023-05-07T07:55:57;2;1;
55459;PMS5003;41326;45.302;-122.946;2023-05-07T07:58:27;1;1;
55459;PMS5003;41326;45.302;-122.946;2023-05-07T08:00:57;2;1;
55459;PMS5003;41326;45.302;-122.946;2023-05-07T08:03:28;4;1;
55459;PMS5003;41326;45.302;-122.946;2023-05-07T08:05:58;1;1;
55459;PMS5003;41326;45.302;-122.946;2023-05-07T08:08:29;1;1;
55459;PMS5003;41326;45.302;-122.946;2023-05-07T08:10:59;0;0;
55459;PMS5003;41326;45.302;-122.946;2023-05-07T08:13:29;1;1;
55459;PMS5003;41326;45.302;-122.946;2023-05-07T08:15:59;1;1;
55459;PMS5003;41326;45.302;-122.946;2023-05-07T08:18:29;1;1;
55459;PMS5003;41326;45.302;-122.946;2023-05-07T08:21:00;0;0;
55459;PMS5003;41326;45.302;-122.946;2023-05-07T08:23:30;0;0;
55459;PMS5003;41326;45.302;-122.946;2023-05-07T08:26:01;0;0;
55459;PMS5003;41326;45.302;-122.946;2023-05-07T08:28:31;1;1;
55459;PMS5003;41326;45.302;-122.946;2023-05-07T08:31:02;0;0;
55459;PMS5003;41326;45.302;-122.946;2023-05-07T08:33:32;0;0;
55459;PMS5003;41326;45.302;-122.946;2023-05-07T08:36:02;1;1;
55459;PMS5003;41326;45.302;-122.946;2023-05-07T08:38:32;0;0;
55459;PMS5003;41326;45.302;-122.946;2023-05-07T08:41:03;0;0;
55459;PMS5003;41326;45.302;-122.946;2023-05-07T08:43:33;0;0;
55459;PMS5003;41326;45.302;-122.946;2023-05-07T08:46:03;2;0;
55459;PMS5003;41326;45.302;-122.946;2023-05-07T08:48:34;0;0;
55459;PMS5003;41326;45.302;-122.946;2023-05-07T08:51:05;1;0;
55459;PMS5003;41326;45.302;-122.946;2023-05-07T08:53:35;0;0;
55459;PMS5003;41326;45.302;-122.946;2023-05-07T08:56:05;0;0;
55459;PMS5003;41326;45.302;-122.946;2023-05-07T08:58:35;1;1;
55459;PMS5003;41326;45.302;-122.946;2023-05-07T09:01:07;0;0;
55459;PMS5003;41326;45.302;-122.946;2023-05-07T09:03:36;0;0;
55459;PMS5003;41326;45.302;-122.946;2023-05-07T09:06:07;0;0;
55459;PMS5003;41326;45.302;-122.946;2023-05-07T09:08:37;0;0;
55459;PMS5003;41326;45.302;-122.946;2023-05-07T09:11:08;0;0;
55459;PMS5003;41326;45.302;-122.946;2023-05-07T09:13:38;0;0;
55459;PMS5003;41326;45.302;-122.946;2023-05-07T09:16:12;0;0;
55459;PMS5003;41326;45.302;-122.946;2023-05-07T09:18:41;0;0;
55459;PMS5003;41326;45.302;-122.946;2023-05-07T09:21:11;0;0;
55459;PMS5003;41326;45.302;-122.946;2023-05-07T09:23:40;2;2;
55459;PMS5003;41326;45.302;-122.946;2023-05-07T09:26:10;0;0;
55459;PMS5003;41326;45.302;-122.946;2023-05-07T09:28:40;0;0;
55459;PMS5003;41326;45.302;-122.946;2023-05-07T09:31:10;0;0;
55459;PMS5003;41326;45.302;-122.946;2023-05-07T09:33:41;1;1;
55459;PMS5003;41326;45.302;-122.946;2023-05-07T09:36:11;0;0;
55459;PMS5003;41326;45.302;-122.946;2023-05-07T09:38:41;1;1;
55459;PMS5003;41326;45.302;-122.946;2023-05-07T09:41:12;0;0;
55459;PMS5003;41326;45.302;-122.946;2023-05-07T09:43:42;1;0;
55459;PMS5003;41326;45.302;-122.946;2023-05-07T09:46:13;0;0;
55459;PMS5003;41326;45.302;-122.946;2023-05-07T09:48:43;0;0;
55459;PMS5003;41326;45.302;-122.946;2023-05-07T09:51:25;0;0;
55459;PMS5003;41326;45.302;-122.946;2023-05-07T09:53:44;0;0;
55459;PMS5003;41326;45.302;-122.946;2023-05-07T09:56:14;1;0;
55459;PMS5003;41326;45.302;-122.946;2023-05-07T09:58:45;0;0;
55459;PMS5003;41326;45.302;-122.946;2023-05-07T10:01:15;0;0;
55459;PMS5003;41326;45.302;-122.946;2023-05-07T10:03:45;0;0;
55459;PMS5003;41326;45.302;-122.946;2023-05-07T10:06:15;0;0;
55459;PMS5003;41326;45.302;-122.946;2023-05-07T10:08:46;0;0;
55459;PMS5003;41326;45.302;-122.946;2023-05-07T10:11:16;0;0;
55459;PMS5003;41326;45.302;-122.946;2023-05-07T10:13:46;0;0;
55459;PMS5003;41326;45.302;-122.946;2023-05-07T10:16:17;0;0;
55459;PMS5003;41326;45.302;-122.946;2023-05-07T10:18:47;0;0;
55459;PMS5003;41326;45.302;-122.946;2023-05-07T10:21:18;1;0;
55459;PMS5003;41326;45.302;-122.946;2023-05-07T10:23:49;0;0;
55459;PMS5003;41326;45.302;-122.946;2023-05-07T10:26:18;1;0;
55459;PMS5003;41326;45.302;-122.946;2023-05-07T10:28:49;0;0;
55459;PMS5003;41326;45.302;-122.946;2023-05-07T10:31:23;0;0;
55459;PMS5003;41326;45.302;-122.946;2023-05-07T10:33:49;0;0;
55459;PMS5003;41326;45.302;-122.946;2023-05-07T10:36:19;0;0;
55459;PMS5003;41326;45.302;-122.946;2023-05-07T10:38:50;0;0;
55459;PMS5003;41326;45.302;-122.946;2023-05-07T10:41:20;0;0;
55459;PMS5003;41326;45.302;-122.946;2023-05-07T10:43:51;0;0;
55459;PMS5003;41326;45.302;-122.946;2023-05-07T10:46:22;0;0;
55459;PMS5003;41326;45.302;-122.946;2023-05-07T10:52:41;0;0;
55459;PMS5003;41326;45.302;-122.946;2023-05-07T10:57:41;0;0;
55459;PMS5003;41326;45.302;-122.946;2023-05-07T11:07:42;1;0;
55459;PMS5003;41326;45.302;-122.946;2023-05-07T11:10:13;0;0;
55459;PMS5003;41326;45.302;-122.946;2023-05-07T11:12:47;0;0;
55459;PMS5003;41326;45.302;-122.946;2023-05-07T11:15:14;0;0;
55459;PMS5003;41326;45.302;-122.946;2023-05-07T11:20:14;0;0;
55459;PMS5003;41326;45.302;-122.946;2023-05-07T11:22:44;0;0;
55459;PMS5003;41326;45.302;-122.946;2023-05-07T11:25:18;0;0;
55459;PMS5003;41326;45.302;-122.946;2023-05-07T11:27:45;2;0;
55459;PMS5003;41326;45.302;-122.946;2023-05-07T11:30:17;2;1;
55459;PMS5003;41326;45.302;-122.946;2023-05-07T11:32:47;1;0;
55459;PMS5003;41326;45.302;-122.946;2023-05-07T11:35:16;0;0;
55459;PMS5003;41326;45.302;-122.946;2023-05-07T11:37:47;0;0;
55459;PMS5003;41326;45.302;-122.946;2023-05-07T11:40:18;0;0;
55459;PMS5003;41326;45.302;-122.946;2023-05-07T11:42:48;0;0;
55459;PMS5003;41326;45.302;-122.946;2023-05-07T11:45:23;0;0;
55459;PMS5003;41326;45.302;-122.946;2023-05-07T11:47:48;0;0;
55459;PMS5003;41326;45.302;-122.946;2023-05-07T11:50:18;0;0;
55459;PMS5003;41326;45.302;-122.946;2023-05-07T11:52:50;0;0;
55459;PMS5003;41326;45.302;-122.946;2023-05-07T11:55:19;0;0;
55459;PMS5003;41326;45.302;-122.946;2023-05-07T11:57:49;0;0;
55459;PMS5003;41326;45.302;-122.946;2023-05-07T12:00:19;0;0;
55459;PMS5003;41326;45.302;-122.946;2023-05-07T12:02:49;0;0;
55459;PMS5003;41326;45.302;-122.946;2023-05-07T12:05:20;0;0;
55459;PMS5003;41326;45.302;-122.946;2023-05-07T12:10:20;0;0;
55459;PMS5003;41326;45.302;-122.946;2023-05-07T12:12:50;0;0;
55459;PMS5003;41326;45.302;-122.946;2023-05-07T12:15:22;0;0;
55459;PMS5003;41326;45.302;-122.946;2023-05-07T12:17:51;0;0;
55459;PMS5003;41326;45.302;-122.946;2023-05-07T12:20:21;0;0;
55459;PMS5003;41326;45.302;-122.946;2023-05-07T12:22:52;1;1;
55459;PMS5003;41326;45.302;-122.946;2023-05-07T12:25:23;2;0;
55459;PMS5003;41326;45.302;-122.946;2023-05-07T12:27:53;0;0;
55459;PMS5003;41326;45.302;-122.946;2023-05-07T12:30:23;0;0;
55459;PMS5003;41326;45.302;-122.946;2023-05-07T12:32:53;1;0;
55459;PMS5003;41326;45.302;-122.946;2023-05-07T12:35:27;0;0;
55459;PMS5003;41326;45.302;-122.946;2023-05-07T12:37:55;0;0;
55459;PMS5003;41326;45.302;-122.946;2023-05-07T12:40:24;0;0;
55459;PMS5003;41326;45.302;-122.946;2023-05-07T12:42:55;0;0;
55459;PMS5003;41326;45.302;-122.946;2023-05-07T12:45:25;0;0;
55459;PMS5003;41326;45.302;-122.946;2023-05-07T12:47:55;0;0;
55459;PMS5003;41326;45.302;-122.946;2023-05-07T12:50:26;0;0;
55459;PMS5003;41326;45.302;-122.946;2023-05-07T12:52:56;0;0;
55459;PMS5003;41326;45.302;-122.946;2023-05-07T12:55:27;0;0;
55459;PMS5003;41326;45.302;-122.946;2023-05-07T12:57:57;0;0;
55459;PMS5003;41326;45.302;-122.946;2023-05-07T13:02:58;0;0;
55459;PMS5003;41326;45.302;-122.946;2023-05-07T13:05:28;1;0;
55459;PMS5003;41326;45.302;-122.946;2023-05-07T13:07:59;0;0;
55459;PMS5003;41326;45.302;-122.946;2023-05-07T13:10:29;1;0;
55459;PMS5003;41326;45.302;-122.946;2023-05-07T13:12:59;0;0;
55459;PMS5003;41326;45.302;-122.946;2023-05-07T13:15:29;0;0;
55459;PMS5003;41326;45.302;-122.946;2023-05-07T13:18:00;0;0;
55459;PMS5003;41326;45.302;-122.946;2023-05-07T13:20:30;0;0;
55459;PMS5003;41326;45.302;-122.946;2023-05-07T13:23:01;0;0;
55459;PMS5003;41326;45.302;-122.946;2023-05-07T13:25:31;1;0;
55459;PMS5003;41326;45.302;-122.946;2023-05-07T13:28:01;0;0;
55459;PMS5003;41326;45.302;-122.946;2023-05-07T13:30:32;0;0;
55459;PMS5003;41326;45.302;-122.946;2023-05-07T13:33:02;0;0;
55459;PMS5003;41326;45.302;-122.946;2023-05-07T13:35:33;0;0;
55459;PMS5003;41326;45.302;-122.946;2023-05-07T13:38:03;0;0;
55459;PMS5003;41326;45.302;-122.946;2023-05-07T13:40:33;0;0;
55459;PMS5003;41326;45.302;-122.946;2023-05-07T13:43:05;0;0;
55459;PMS5003;41326;45.302;-122.946;2023-05-07T13:45:34;0;0;
55459;PMS5003;41326;45.302;-122.946;2023-05-07T13:48:04;0;0;
55459;PMS5003;41326;45.302;-122.946;2023-05-07T13:50:34;0;0;
55459;PMS5003;41326;45.302;-122.946;2023-05-07T13:53:05;0;0;
55459;PMS5003;41326;45.302;-122.946;2023-05-07T13:55:35;0;0;
55459;PMS5003;41326;45.302;-122.946;2023-05-07T13:58:05;0;0;
55459;PMS5003;41326;45.302;-122.946;2023-05-07T14:00:36;0;0;
55459;PMS5003;41326;45.302;-122.946;2023-05-07T14:03:06;2;0;
55459;PMS5003;41326;45.302;-122.946;2023-05-07T14:05:36;0;0;
55459;PMS5003;41326;45.302;-122.946;2023-05-07T14:08:07;0;0;
55459;PMS5003;41326;45.302;-122.946;2023-05-07T14:10:37;1;1;
55459;PMS5003;41326;45.302;-122.946;2023-05-07T14:13:07;0;0;
55459;PMS5003;41326;45.302;-122.946;2023-05-07T14:15:38;0;0;
55459;PMS5003;41326;45.302;-122.946;2023-05-07T14:18:09;0;0;
55459;PMS5003;41326;45.302;-122.946;2023-05-07T14:20:40;0;0;
55459;PMS5003;41326;45.302;-122.946;2023-05-07T14:23:09;0;0;
55459;PMS5003;41326;45.302;-122.946;2023-05-07T14:25:40;0;0;
55459;PMS5003;41326;45.302;-122.946;2023-05-07T14:28:10;0;0;
55459;PMS5003;41326;45.302;-122.946;2023-05-07T14:30:40;0;0;
55459;PMS5003;41326;45.302;-122.946;2023-05-07T14:33:11;0;0;
55459;PMS5003;41326;45.302;-122.946;2023-05-07T14:35:41;0;0;
55459;PMS5003;41326;45.302;-122.946;2023-05-07T14:38:11;0;0;
55459;PMS5003;41326;45.302;-122.946;2023-05-07T14:40:42;1;1;
55459;PMS5003;41326;45.302;-122.946;2023-05-07T14:43:12;0;0;
55459;PMS5003;41326;45.302;-122.946;2023-05-07T14:45:42;0;0;
55459;PMS5003;41326;45.302;-122.946;2023-05-07T14:48:12;0;0;
55459;PMS5003;41326;45.302;-122.946;2023-05-07T14:50:43;0;0;
55459;PMS5003;41326;45.302;-122.946;2023-05-07T14:53:13;0;0;
55459;PMS5003;41326;45.302;-122.946;2023-05-07T14:55:43;0;0;
55459;PMS5003;41326;45.302;-122.946;2023-05-07T14:58:13;0;0;
55459;PMS5003;41326;45.302;-122.946;2023-05-07T15:00:43;0;0;
55459;PMS5003;41326;45.302;-122.946;2023-05-07T15:03:13;0;0;
55459;PMS5003;41326;45.302;-122.946;2023-05-07T15:05:43;0;0;
55459;PMS5003;41326;45.302;-122.946;2023-05-07T15:08:14;0;0;
55459;PMS5003;41326;45.302;-122.946;2023-05-07T15:10:44;0;0;
55459;PMS5003;41326;45.302;-122.946;2023-05-07T15:13:15;0;0;
55459;PMS5003;41326;45.302;-122.946;2023-05-07T15:15:45;0;0;
55459;PMS5003;41326;45.302;-122.946;2023-05-07T15:18:15;0;0;
55459;PMS5003;41326;45.302;-122.946;2023-05-07T15:20:46;0;0;
55459;PMS5003;41326;45.302;-122.946;2023-05-07T15:23:17;1;0;
55459;PMS5003;41326;45.302;-122.946;2023-05-07T15:25:46;0;0;
55459;PMS5003;41326;45.302;-122.946;2023-05-07T15:28:16;0;0;
55459;PMS5003;41326;45.302;-122.946;2023-05-07T15:30:47;1;1;
55459;PMS5003;41326;45.302;-122.946;2023-05-07T15:33:17;0;0;
55459;PMS5003;41326;45.302;-122.946;2023-05-07T15:35:47;0;0;
55459;PMS5003;41326;45.302;-122.946;2023-05-07T15:38:17;0;0;
55459;PMS5003;41326;45.302;-122.946;2023-05-07T15:40:48;0;0;
55459;PMS5003;41326;45.302;-122.946;2023-05-07T15:43:18;0;0;
55459;PMS5003;41326;45.302;-122.946;2023-05-07T15:45:48;0;0;
55459;PMS5003;41326;45.302;-122.946;2023-05-07T15:48:19;0;0;
55459;PMS5003;41326;45.302;-122.946;2023-05-07T15:50:49;0;0;
55459;PMS5003;41326;45.302;-122.946;2023-05-07T15:53:19;0;0;
55459;PMS5003;41326;45.302;-122.946;2023-05-07T15:55:50;0;0;
55459;PMS5003;41326;45.302;-122.946;2023-05-07T15:58:20;0;0;
55459;PMS5003;41326;45.302;-122.946;2023-05-07T16:00:50;0;0;
55459;PMS5003;41326;45.302;-122.946;2023-05-07T16:03:21;0;0;
55459;PMS5003;41326;45.302;-122.946;2023-05-07T16:05:51;0;0;
55459;PMS5003;41326;45.302;-122.946;2023-05-07T16:08:21;0;0;
55459;PMS5003;41326;45.302;-122.946;2023-05-07T16:10:51;0;0;
55459;PMS5003;41326;45.302;-122.946;2023-05-07T16:13:22;0;0;
55459;PMS5003;41326;45.302;-122.946;2023-05-07T16:15:54;0;0;
55459;PMS5003;41326;45.302;-122.946;2023-05-07T16:18:23;0;0;
55459;PMS5003;41326;45.302;-122.946;2023-05-07T16:20:53;0;0;
55459;PMS5003;41326;45.302;-122.946;2023-05-07T16:23:23;0;0;
55459;PMS5003;41326;45.302;-122.946;2023-05-07T16:25:53;0;0;
55459;PMS5003;41326;45.302;-122.946;2023-05-07T16:28:23;1;1;
55459;PMS5003;41326;45.302;-122.946;2023-05-07T16:30:54;0;0;
55459;PMS5003;41326;45.302;-122.946;2023-05-07T16:33:25;0;0;
55459;PMS5003;41326;45.302;-122.946;2023-05-07T16:35:55;1;1;
55459;PMS5003;41326;45.302;-122.946;2023-05-07T16:38:25;0;0;
55459;PMS5003;41326;45.302;-122.946;2023-05-07T16:40:56;2;1;
55459;PMS5003;41326;45.302;-122.946;2023-05-07T16:43:26;0;0;